TimePDT,TemperatureF,Dew PointF,Humidity,Sea Level PressureIn,VisibilityMPH,Wind Direction,Wind SpeedMPH,Gust SpeedMPH,PrecipitationIn,Events,Conditions,WindDirDegrees,DateUTC
12:41 AM,35.6,35.6,100,29.75,8.0,SE,8.1,-,N/A,,Partly Cloudy,130,2012-10-22 07:41:00
12:58 AM,37.2,36.9,99,29.77,10.0,Variable,2.3,-,N/A,,Clear,0,2012-10-22 07:58:00
1:28 AM,35.6,33.8,93,29.74,1.8,South,2.3,-,N/A,,Scattered Clouds,170,2012-10-22 08:28:00
1:33 AM,35.6,35.6,100,29.74,1.5,Calm,Calm,-,N/A,,Scattered Clouds,0,2012-10-22 08:33:00
1:38 AM,35.6,35.6,100,29.74,3.0,Calm,Calm,-,N/A,,Mostly Cloudy,20,2012-10-22 08:38:00
1:48 AM,35.6,35.6,100,29.73,2.0,East,1.2,-,N/A,,Mostly Cloudy,80,2012-10-22 08:48:00
1:53 AM,33.8,33.8,100,29.73,1.8,ESE,1.2,-,N/A,,Mostly Cloudy,120,2012-10-22 08:53:00
1:58 AM,33.8,32.0,93,29.75,3.0,ESE,1.2,-,N/A,,Overcast,110,2012-10-22 08:58:00
2:58 AM,35.8,35.6,99,29.72,9.0,Variable,1.2,-,N/A,,Overcast,0,2012-10-22 09:58:00
3:58 AM,35.8,35.6,99,29.69,10.0,SSE,2.3,-,N/A,,Overcast,150,2012-10-22 10:58:00
4:18 AM,35.6,35.6,100,29.66,2.5,SE,2.3,-,N/A,,Scattered Clouds,140,2012-10-22 11:18:00
4:23 AM,35.6,35.6,100,29.65,1.8,East,2.3,-,N/A,,Partly Cloudy,100,2012-10-22 11:23:00
4:28 AM,35.6,35.6,100,29.65,2.5,NE,2.3,-,N/A,,Partly Cloudy,50,2012-10-22 11:28:00
4:33 AM,35.6,35.6,100,29.65,4.0,ENE,2.3,-,N/A,,Clear,60,2012-10-22 11:33:00
4:58 AM,34.5,34.2,99,29.66,2.5,South,4.6,-,N/A,,Clear,180,2012-10-22 11:58:00
5:03 AM,33.8,33.8,100,29.64,3.0,ENE,1.2,-,N/A,,Clear,70,2012-10-22 12:03:00
5:58 AM,33.4,33.1,99,29.65,10.0,South,3.5,-,N/A,,Clear,170,2012-10-22 12:58:00
5:59 AM,32.0,32.0,100,29.63,10.0,South,4.6,-,N/A,,Partly Cloudy,170,2012-10-22 12:59:00
6:14 AM,33.8,33.8,100,29.62,10.0,SE,3.5,-,N/A,,Mostly Cloudy,130,2012-10-22 13:14:00
6:58 AM,35.4,35.1,99,29.62,8.0,East,1.2,-,N/A,,Overcast,90,2012-10-22 13:58:00
7:28 AM,35.6,35.6,100,29.59,9.0,SE,3.5,-,N/A,,Overcast,140,2012-10-22 14:28:00
7:58 AM,34.7,34.5,99,29.60,7.0,SSE,2.3,-,N/A,,Mostly Cloudy,160,2012-10-22 14:58:00
8:48 AM,37.4,37.4,100,29.59,10.0,South,8.1,-,N/A,,Overcast,180,2012-10-22 15:48:00
8:58 AM,37.4,37.2,99,29.61,10.0,SSW,4.6,-,N/A,,Overcast,200,2012-10-22 15:58:00
9:18 AM,39.2,39.2,100,29.58,10.0,SW,2.3,-,N/A,,Overcast,220,2012-10-22 16:18:00
9:27 AM,39.2,39.2,100,29.58,10.0,SSW,3.5,-,N/A,,Overcast,210,2012-10-22 16:27:00
9:37 AM,39.2,39.2,100,29.58,10.0,SW,4.6,-,N/A,,Overcast,220,2012-10-22 16:37:00
9:58 AM,40.5,40.3,99,29.60,10.0,WNW,3.5,-,N/A,,Overcast,300,2012-10-22 16:58:00
10:03 AM,41.0,41.0,100,29.58,10.0,Calm,Calm,-,N/A,,Mostly Cloudy,340,2012-10-22 17:03:00
10:29 AM,41.0,41.0,100,29.59,10.0,SSE,5.8,-,N/A,,Scattered Clouds,150,2012-10-22 17:29:00
10:44 AM,41.0,41.0,100,29.58,10.0,SSE,3.5,-,N/A,Rain,Light Rain,150,2012-10-22 17:44:00
10:49 AM,41.0,41.0,100,29.58,10.0,South,2.3,-,N/A,Rain,Light Rain,180,2012-10-22 17:49:00
10:58 AM,41.0,40.6,99,29.61,9.0,South,4.6,-,0.00,Rain,Light Rain,180,2012-10-22 17:58:00
11:33 AM,41.0,41.0,100,29.58,8.0,South,4.6,-,N/A,Rain,Light Rain,190,2012-10-22 18:33:00
11:58 AM,42.1,41.7,99,29.60,7.0,SSW,3.5,-,0.06,Rain,Light Rain,210,2012-10-22 18:58:00
12:13 PM,42.8,42.8,100,29.59,6.0,SW,3.5,-,N/A,,Overcast,220,2012-10-22 19:13:00
12:17 PM,42.8,42.8,100,29.59,7.0,SW,2.3,-,N/A,,Overcast,220,2012-10-22 19:17:00
12:32 PM,42.8,42.8,100,29.59,7.0,SSW,3.5,-,N/A,Rain,Light Rain,210,2012-10-22 19:32:00
12:37 PM,42.8,42.8,100,29.58,8.0,SSW,3.5,-,N/A,Rain,Light Rain,210,2012-10-22 19:37:00
12:58 PM,43.3,42.1,95,29.60,8.0,West,4.6,-,0.05,Rain,Light Rain,260,2012-10-22 19:58:00
1:08 PM,42.8,42.8,100,29.58,9.0,West,4.6,-,N/A,Rain,Light Rain,260,2012-10-22 20:08:00
1:13 PM,42.8,42.8,100,29.58,9.0,West,4.6,-,N/A,Rain,Light Rain,260,2012-10-22 20:13:00
1:38 PM,44.6,42.8,93,29.58,9.0,South,4.6,-,N/A,Rain,Light Rain,190,2012-10-22 20:38:00
1:58 PM,43.7,43.0,97,29.61,8.0,South,5.8,-,0.04,Rain,Light Rain,180,2012-10-22 20:58:00
2:03 PM,42.8,42.8,100,29.59,7.0,South,5.8,-,N/A,,Overcast,180,2012-10-22 21:03:00
2:08 PM,42.8,42.8,100,29.59,7.0,South,5.8,-,N/A,,Overcast,180,2012-10-22 21:08:00
2:28 PM,42.8,42.8,100,29.59,7.0,SSW,4.6,-,N/A,,Overcast,200,2012-10-22 21:28:00
2:38 PM,42.8,42.8,100,29.59,5.0,SSW,4.6,-,N/A,Rain,Light Rain,210,2012-10-22 21:38:00
2:48 PM,42.8,41.0,93,29.59,7.0,SSW,3.5,-,N/A,Rain,Light Rain,210,2012-10-22 21:48:00
2:58 PM,42.8,41.0,93,29.62,5.0,SW,2.3,-,0.07,Rain,Light Rain,220,2012-10-22 21:58:00
3:08 PM,42.8,41.0,93,29.60,6.0,South,3.5,-,N/A,Rain,Light Rain,180,2012-10-22 22:08:00
3:13 PM,42.8,41.0,93,29.60,7.0,South,3.5,-,N/A,Rain,Light Rain,180,2012-10-22 22:13:00
3:38 PM,42.8,41.0,93,29.60,6.0,SSE,2.3,-,N/A,,Overcast,150,2012-10-22 22:38:00
3:53 PM,42.8,41.0,93,29.60,7.0,East,1.2,-,N/A,Rain,Light Rain,80,2012-10-22 22:53:00
3:58 PM,42.4,40.8,94,29.62,6.0,East,2.3,-,0.07,,Overcast,80,2012-10-22 22:58:00
4:32 PM,42.8,41.0,93,29.60,10.0,Calm,Calm,-,N/A,Rain,Light Rain,30,2012-10-22 23:32:00
4:58 PM,42.8,41.2,94,29.63,10.0,East,2.3,-,0.02,Rain,Light Rain,80,2012-10-22 23:58:00
5:31 PM,42.8,41.0,93,29.61,10.0,ESE,2.3,-,N/A,,Overcast,110,2012-10-23 00:31:00
5:35 PM,42.8,41.0,93,29.61,10.0,ESE,1.2,-,N/A,Rain,Light Rain,120,2012-10-23 00:35:00
5:58 PM,42.6,41.7,97,29.63,10.0,SE,1.2,-,0.01,Rain,Light Rain,130,2012-10-23 00:58:00
6:37 PM,42.8,42.8,100,29.61,10.0,ENE,1.2,-,N/A,,Mostly Cloudy,70,2012-10-23 01:37:00
6:42 PM,42.8,42.8,100,29.61,10.0,East,2.3,-,N/A,,Mostly Cloudy,90,2012-10-23 01:42:00
6:58 PM,42.3,41.7,98,29.63,10.0,ESE,1.2,-,0.01,,Mostly Cloudy,110,2012-10-23 01:58:00
7:58 PM,42.4,41.9,98,29.64,10.0,ENE,2.3,-,N/A,,Overcast,60,2012-10-23 02:58:00
8:23 PM,42.8,41.0,93,29.62,10.0,ESE,2.3,-,N/A,,Overcast,120,2012-10-23 03:23:00
8:58 PM,42.1,41.9,99,29.64,10.0,SSE,3.5,-,N/A,,Overcast,150,2012-10-23 03:58:00
9:58 PM,42.4,40.6,93,29.65,10.0,South,8.1,-,N/A,,Overcast,170,2012-10-23 04:58:00
10:58 PM,41.7,40.5,95,29.66,10.0,SSE,4.6,-,N/A,,Overcast,150,2012-10-23 05:58:00
11:58 PM,39.6,38.7,97,29.68,10.0,SSE,4.6,-,N/A,,Overcast,160,2012-10-23 06:58:00